sensor_id;sensor_type;location;lat;lon;timestamp;temperature;humidity
1379;DHT22;683;48.738;9.226;2022-11-20T00:00:54;4.80;99.90
1379;DHT22;683;48.738;9.226;2022-11-20T00:03:22;4.80;99.90
1379;DHT22;683;48.738;9.226;2022-11-20T00:05:50;4.80;99.90
1379;DHT22;683;48.738;9.226;2022-11-20T00:08:18;4.80;99.90
1379;DHT22;683;48.738;9.226;2022-11-20T00:10:45;4.80;99.90
1379;DHT22;683;48.738;9.226;2022-11-20T00:13:13;4.80;99.90
1379;DHT22;683;48.738;9.226;2022-11-20T00:15:41;4.80;99.90
1379;DHT22;683;48.738;9.226;2022-11-20T00:18:10;4.80;99.90
1379;DHT22;683;48.738;9.226;2022-11-20T00:20:38;4.80;99.90
1379;DHT22;683;48.738;9.226;2022-11-20T00:23:06;4.80;99.90
1379;DHT22;683;48.738;9.226;2022-11-20T00:25:34;4.80;99.90
1379;DHT22;683;48.738;9.226;2022-11-20T00:28:02;4.80;99.90
1379;DHT22;683;48.738;9.226;2022-11-20T00:30:30;4.70;99.90
1379;DHT22;683;48.738;9.226;2022-11-20T00:32:57;4.70;99.90
1379;DHT22;683;48.738;9.226;2022-11-20T00:35:27;4.70;99.90
1379;DHT22;683;48.738;9.226;2022-11-20T00:37:54;4.80;99.90
1379;DHT22;683;48.738;9.226;2022-11-20T00:40:22;4.80;99.90
1379;DHT22;683;48.738;9.226;2022-11-20T00:42:50;4.70;99.90
1379;DHT22;683;48.738;9.226;2022-11-20T00:45:18;4.70;99.90
1379;DHT22;683;48.738;9.226;2022-11-20T00:47:45;4.70;99.90
1379;DHT22;683;48.738;9.226;2022-11-20T00:50:13;4.80;99.90
1379;DHT22;683;48.738;9.226;2022-11-20T00:52:42;4.80;99.90
1379;DHT22;683;48.738;9.226;2022-11-20T00:55:10;4.80;99.90
1379;DHT22;683;48.738;9.226;2022-11-20T00:57:38;4.80;99.90
1379;DHT22;683;48.738;9.226;2022-11-20T01:00:07;4.80;99.90
1379;DHT22;683;48.738;9.226;2022-11-20T01:02:35;4.80;99.90
1379;DHT22;683;48.738;9.226;2022-11-20T01:05:03;4.80;99.90
1379;DHT22;683;48.738;9.226;2022-11-20T01:07:32;4.80;99.90
1379;DHT22;683;48.738;9.226;2022-11-20T01:10:01;4.80;99.90
1379;DHT22;683;48.738;9.226;2022-11-20T01:12:29;4.80;99.90
1379;DHT22;683;48.738;9.226;2022-11-20T01:14:57;4.90;99.90
1379;DHT22;683;48.738;9.226;2022-11-20T01:17:25;4.90;99.90
1379;DHT22;683;48.738;9.226;2022-11-20T01:19:53;4.90;99.90
1379;DHT22;683;48.738;9.226;2022-11-20T01:22:20;4.90;99.90
1379;DHT22;683;48.738;9.226;2022-11-20T01:24:48;4.90;99.90
1379;DHT22;683;48.738;9.226;2022-11-20T01:27:17;4.90;99.90
1379;DHT22;683;48.738;9.226;2022-11-20T01:29:45;4.90;99.90
1379;DHT22;683;48.738;9.226;2022-11-20T01:32:13;4.90;99.90
1379;DHT22;683;48.738;9.226;2022-11-20T01:34:41;4.90;99.90
1379;DHT22;683;48.738;9.226;2022-11-20T01:37:08;4.90;99.90
1379;DHT22;683;48.738;9.226;2022-11-20T01:39:36;4.90;99.90
1379;DHT22;683;48.738;9.226;2022-11-20T01:42:04;4.90;99.90
1379;DHT22;683;48.738;9.226;2022-11-20T01:44:53;4.80;99.90
1379;DHT22;683;48.738;9.226;2022-11-20T01:47:25;4.80;99.90
1379;DHT22;683;48.738;9.226;2022-11-20T01:49:58;4.70;99.90
1379;DHT22;683;48.738;9.226;2022-11-20T01:52:30;4.70;99.90
1379;DHT22;683;48.738;9.226;2022-11-20T01:55:04;4.60;99.90
1379;DHT22;683;48.738;9.226;2022-11-20T01:57:33;4.50;99.90
1379;DHT22;683;48.738;9.226;2022-11-20T02:00:05;4.40;99.90
1379;DHT22;683;48.738;9.226;2022-11-20T02:02:42;4.30;99.90
1379;DHT22;683;48.738;9.226;2022-11-20T02:05:18;4.30;99.90
1379;DHT22;683;48.738;9.226;2022-11-20T02:07:47;4.30;99.90
1379;DHT22;683;48.738;9.226;2022-11-20T02:10:16;4.20;99.90
1379;DHT22;683;48.738;9.226;2022-11-20T02:12:43;4.20;99.90
1379;DHT22;683;48.738;9.226;2022-11-20T02:15:32;4.10;99.90
1379;DHT22;683;48.738;9.226;2022-11-20T02:18:01;4.10;99.90
1379;DHT22;683;48.738;9.226;2022-11-20T02:20:29;4.10;99.90
1379;DHT22;683;48.738;9.226;2022-11-20T02:22:59;4.10;99.90
1379;DHT22;683;48.738;9.226;2022-11-20T02:25:30;4.20;99.90
1379;DHT22;683;48.738;9.226;2022-11-20T02:27:58;4.20;99.90
1379;DHT22;683;48.738;9.226;2022-11-20T02:30:26;4.20;99.90
1379;DHT22;683;48.738;9.226;2022-11-20T02:32:54;4.20;99.90
1379;DHT22;683;48.738;9.226;2022-11-20T02:35:41;4.20;99.90
1379;DHT22;683;48.738;9.226;2022-11-20T02:38:10;4.20;99.90
1379;DHT22;683;48.738;9.226;2022-11-20T02:40:39;4.10;99.90
1379;DHT22;683;48.738;9.226;2022-11-20T02:43:07;4.10;99.90
1379;DHT22;683;48.738;9.226;2022-11-20T02:45:35;4.10;99.90
1379;DHT22;683;48.738;9.226;2022-11-20T02:48:05;4.10;99.90
1379;DHT22;683;48.738;9.226;2022-11-20T02:50:35;4.10;99.90
1379;DHT22;683;48.738;9.226;2022-11-20T02:53:03;4.00;99.90
1379;DHT22;683;48.738;9.226;2022-11-20T02:55:31;4.00;99.90
1379;DHT22;683;48.738;9.226;2022-11-20T02:58:01;4.00;99.90
1379;DHT22;683;48.738;9.226;2022-11-20T03:00:29;4.00;99.90
1379;DHT22;683;48.738;9.226;2022-11-20T03:02:56;4.00;99.90
1379;DHT22;683;48.738;9.226;2022-11-20T03:05:24;4.00;99.90
1379;DHT22;683;48.738;9.226;2022-11-20T03:07:52;4.10;99.90
1379;DHT22;683;48.738;9.226;2022-11-20T03:10:20;4.10;99.90
1379;DHT22;683;48.738;9.226;2022-11-20T03:12:53;4.10;99.90
1379;DHT22;683;48.738;9.226;2022-11-20T03:15:23;4.20;99.90
1379;DHT22;683;48.738;9.226;2022-11-20T03:17:53;4.20;99.90
1379;DHT22;683;48.738;9.226;2022-11-20T03:20:22;4.20;99.90
1379;DHT22;683;48.738;9.226;2022-11-20T03:22:49;4.30;99.90
1379;DHT22;683;48.738;9.226;2022-11-20T03:25:17;4.30;99.90
1379;DHT22;683;48.738;9.226;2022-11-20T03:27:45;4.30;99.90
1379;DHT22;683;48.738;9.226;2022-11-20T03:30:13;4.30;99.90
1379;DHT22;683;48.738;9.226;2022-11-20T03:32:43;4.40;99.90
1379;DHT22;683;48.738;9.226;2022-11-20T03:35:11;4.40;99.90
1379;DHT22;683;48.738;9.226;2022-11-20T03:37:38;4.40;99.90
1379;DHT22;683;48.738;9.226;2022-11-20T03:40:07;4.40;99.90
1379;DHT22;683;48.738;9.226;2022-11-20T03:42:35;4.40;99.90
1379;DHT22;683;48.738;9.226;2022-11-20T03:45:16;4.40;99.90
1379;DHT22;683;48.738;9.226;2022-11-20T03:47:46;4.40;99.90
1379;DHT22;683;48.738;9.226;2022-11-20T03:50:14;4.40;99.90
1379;DHT22;683;48.738;9.226;2022-11-20T03:52:42;4.30;99.90
1379;DHT22;683;48.738;9.226;2022-11-20T03:55:10;4.20;99.90
1379;DHT22;683;48.738;9.226;2022-11-20T03:57:38;4.10;99.90
1379;DHT22;683;48.738;9.226;2022-11-20T04:00:06;4.00;99.90
1379;DHT22;683;48.738;9.226;2022-11-20T04:02:34;4.00;99.90
1379;DHT22;683;48.738;9.226;2022-11-20T04:05:04;3.90;99.90
1379;DHT22;683;48.738;9.226;2022-11-20T04:07:34;3.80;99.90
1379;DHT22;683;48.738;9.226;2022-11-20T04:10:02;3.80;99.90
1379;DHT22;683;48.738;9.226;2022-11-20T04:12:32;3.70;99.90
1379;DHT22;683;48.738;9.226;2022-11-20T04:15:00;3.70;99.90
1379;DHT22;683;48.738;9.226;2022-11-20T04:17:28;3.70;99.90
1379;DHT22;683;48.738;9.226;2022-11-20T04:19:56;3.70;99.90
1379;DHT22;683;48.738;9.226;2022-11-20T04:22:25;3.70;99.90
1379;DHT22;683;48.738;9.226;2022-11-20T04:24:53;3.70;99.90
1379;DHT22;683;48.738;9.226;2022-11-20T04:27:21;3.80;99.90
1379;DHT22;683;48.738;9.226;2022-11-20T04:29:49;3.80;99.90
1379;DHT22;683;48.738;9.226;2022-11-20T04:32:16;3.80;99.90
1379;DHT22;683;48.738;9.226;2022-11-20T04:34:44;3.80;99.90
1379;DHT22;683;48.738;9.226;2022-11-20T04:37:12;3.80;99.90
1379;DHT22;683;48.738;9.226;2022-11-20T04:39:41;3.80;99.90
1379;DHT22;683;48.738;9.226;2022-11-20T04:42:10;3.80;99.90
1379;DHT22;683;48.738;9.226;2022-11-20T04:44:57;3.90;99.90
1379;DHT22;683;48.738;9.226;2022-11-20T04:47:25;3.90;99.90
1379;DHT22;683;48.738;9.226;2022-11-20T04:49:53;3.90;99.90
1379;DHT22;683;48.738;9.226;2022-11-20T04:52:21;3.90;99.90
1379;DHT22;683;48.738;9.226;2022-11-20T04:54:50;3.90;99.90
1379;DHT22;683;48.738;9.226;2022-11-20T04:57:19;3.90;99.90
1379;DHT22;683;48.738;9.226;2022-11-20T04:59:47;3.90;99.90
1379;DHT22;683;48.738;9.226;2022-11-20T05:02:15;3.90;99.90
1379;DHT22;683;48.738;9.226;2022-11-20T05:04:42;4.00;99.90
1379;DHT22;683;48.738;9.226;2022-11-20T05:07:10;4.00;99.90
1379;DHT22;683;48.738;9.226;2022-11-20T05:09:38;4.00;99.90
1379;DHT22;683;48.738;9.226;2022-11-20T05:12:08;4.10;99.90
1379;DHT22;683;48.738;9.226;2022-11-20T05:14:36;4.10;99.90
1379;DHT22;683;48.738;9.226;2022-11-20T05:17:04;4.10;99.90
1379;DHT22;683;48.738;9.226;2022-11-20T05:19:32;4.20;99.90
1379;DHT22;683;48.738;9.226;2022-11-20T05:21:59;4.20;99.90
1379;DHT22;683;48.738;9.226;2022-11-20T05:24:27;4.30;99.90
1379;DHT22;683;48.738;9.226;2022-11-20T05:26:55;4.30;99.90
1379;DHT22;683;48.738;9.226;2022-11-20T05:29:24;4.30;99.90
1379;DHT22;683;48.738;9.226;2022-11-20T05:31:52;4.40;99.90
1379;DHT22;683;48.738;9.226;2022-11-20T05:34:20;4.50;99.90
1379;DHT22;683;48.738;9.226;2022-11-20T05:36:47;4.50;99.90
1379;DHT22;683;48.738;9.226;2022-11-20T05:39:15;4.50;99.90
1379;DHT22;683;48.738;9.226;2022-11-20T05:41:43;4.50;99.90
1379;DHT22;683;48.738;9.226;2022-11-20T05:44:11;4.50;99.90
1379;DHT22;683;48.738;9.226;2022-11-20T05:46:40;4.50;99.90
1379;DHT22;683;48.738;9.226;2022-11-20T05:49:08;4.50;99.90
1379;DHT22;683;48.738;9.226;2022-11-20T05:51:36;4.50;99.90
1379;DHT22;683;48.738;9.226;2022-11-20T05:54:03;4.50;99.90
1379;DHT22;683;48.738;9.226;2022-11-20T05:56:31;4.50;99.90
1379;DHT22;683;48.738;9.226;2022-11-20T05:58:59;4.60;99.90
1379;DHT22;683;48.738;9.226;2022-11-20T06:01:27;4.60;99.90
1379;DHT22;683;48.738;9.226;2022-11-20T06:03:56;4.60;99.90
1379;DHT22;683;48.738;9.226;2022-11-20T06:06:24;4.60;99.90
1379;DHT22;683;48.738;9.226;2022-11-20T06:08:52;4.60;99.90
1379;DHT22;683;48.738;9.226;2022-11-20T06:11:20;4.60;99.90
1379;DHT22;683;48.738;9.226;2022-11-20T06:13:48;4.60;99.90
1379;DHT22;683;48.738;9.226;2022-11-20T06:16:18;4.70;99.90
1379;DHT22;683;48.738;9.226;2022-11-20T06:18:48;4.70;99.90
1379;DHT22;683;48.738;9.226;2022-11-20T06:21:19;4.70;99.90
1379;DHT22;683;48.738;9.226;2022-11-20T06:23:47;4.60;99.90
1379;DHT22;683;48.738;9.226;2022-11-20T06:26:17;4.60;99.90
1379;DHT22;683;48.738;9.226;2022-11-20T06:28:45;4.60;99.90
1379;DHT22;683;48.738;9.226;2022-11-20T06:31:14;4.60;99.90
1379;DHT22;683;48.738;9.226;2022-11-20T06:33:43;4.60;99.90
1379;DHT22;683;48.738;9.226;2022-11-20T06:36:13;4.60;99.90
1379;DHT22;683;48.738;9.226;2022-11-20T06:38:43;4.50;99.90
1379;DHT22;683;48.738;9.226;2022-11-20T06:41:12;4.60;99.90
1379;DHT22;683;48.738;9.226;2022-11-20T06:43:40;4.60;99.90
1379;DHT22;683;48.738;9.226;2022-11-20T06:46:09;4.60;99.90
1379;DHT22;683;48.738;9.226;2022-11-20T06:48:38;4.60;99.90
1379;DHT22;683;48.738;9.226;2022-11-20T06:51:07;4.60;99.90
1379;DHT22;683;48.738;9.226;2022-11-20T06:53:35;4.60;99.90
1379;DHT22;683;48.738;9.226;2022-11-20T06:56:05;4.60;99.90
1379;DHT22;683;48.738;9.226;2022-11-20T06:58:34;4.60;99.90
1379;DHT22;683;48.738;9.226;2022-11-20T07:01:04;4.60;99.90
1379;DHT22;683;48.738;9.226;2022-11-20T07:03:32;4.50;99.90
1379;DHT22;683;48.738;9.226;2022-11-20T07:06:01;4.60;99.90
1379;DHT22;683;48.738;9.226;2022-11-20T07:08:29;4.50;99.90
1379;DHT22;683;48.738;9.226;2022-11-20T07:10:58;4.50;99.90
1379;DHT22;683;48.738;9.226;2022-11-20T07:13:28;4.50;99.90
1379;DHT22;683;48.738;9.226;2022-11-20T07:16:00;4.50;99.90
1379;DHT22;683;48.738;9.226;2022-11-20T07:18:28;4.50;99.90
1379;DHT22;683;48.738;9.226;2022-11-20T07:20:59;4.50;99.90
1379;DHT22;683;48.738;9.226;2022-11-20T07:23:27;4.60;99.90
1379;DHT22;683;48.738;9.226;2022-11-20T07:25:54;4.60;99.90
1379;DHT22;683;48.738;9.226;2022-11-20T07:28:22;4.60;99.90
1379;DHT22;683;48.738;9.226;2022-11-20T07:30:52;4.70;99.90
1379;DHT22;683;48.738;9.226;2022-11-20T07:33:20;4.70;99.90
1379;DHT22;683;48.738;9.226;2022-11-20T07:35:48;4.70;99.90
1379;DHT22;683;48.738;9.226;2022-11-20T07:38:16;4.70;99.90
1379;DHT22;683;48.738;9.226;2022-11-20T07:40:44;4.70;99.90
1379;DHT22;683;48.738;9.226;2022-11-20T07:43:11;4.80;99.90
1379;DHT22;683;48.738;9.226;2022-11-20T07:45:39;4.80;99.90
1379;DHT22;683;48.738;9.226;2022-11-20T07:48:08;4.90;99.90
1379;DHT22;683;48.738;9.226;2022-11-20T07:50:36;4.90;99.90
1379;DHT22;683;48.738;9.226;2022-11-20T07:53:04;4.90;99.90
1379;DHT22;683;48.738;9.226;2022-11-20T07:55:32;4.90;99.90
1379;DHT22;683;48.738;9.226;2022-11-20T07:58:00;4.90;99.90
1379;DHT22;683;48.738;9.226;2022-11-20T08:00:28;5.00;99.90
1379;DHT22;683;48.738;9.226;2022-11-20T08:02:56;5.10;99.90
1379;DHT22;683;48.738;9.226;2022-11-20T08:05:25;5.10;99.90
1379;DHT22;683;48.738;9.226;2022-11-20T08:07:53;5.20;99.90
1379;DHT22;683;48.738;9.226;2022-11-20T08:10:21;5.20;99.90
1379;DHT22;683;48.738;9.226;2022-11-20T08:12:50;5.30;99.90
1379;DHT22;683;48.738;9.226;2022-11-20T08:15:36;5.30;99.90
1379;DHT22;683;48.738;9.226;2022-11-20T08:18:06;5.30;99.90
1379;DHT22;683;48.738;9.226;2022-11-20T08:20:35;5.40;99.90
1379;DHT22;683;48.738;9.226;2022-11-20T08:23:04;5.40;99.90
1379;DHT22;683;48.738;9.226;2022-11-20T08:25:33;5.40;99.90
1379;DHT22;683;48.738;9.226;2022-11-20T08:28:03;5.40;99.90
1379;DHT22;683;48.738;9.226;2022-11-20T08:30:31;5.50;99.90
1379;DHT22;683;48.738;9.226;2022-11-20T08:33:01;5.50;99.90
1379;DHT22;683;48.738;9.226;2022-11-20T08:35:32;5.50;99.90
1379;DHT22;683;48.738;9.226;2022-11-20T08:38:03;5.60;99.90
1379;DHT22;683;48.738;9.226;2022-11-20T08:40:32;5.60;99.90
1379;DHT22;683;48.738;9.226;2022-11-20T08:43:00;5.60;99.90
1379;DHT22;683;48.738;9.226;2022-11-20T08:45:28;5.60;99.90
1379;DHT22;683;48.738;9.226;2022-11-20T08:47:59;5.70;99.90
1379;DHT22;683;48.738;9.226;2022-11-20T08:50:28;5.70;99.90
1379;DHT22;683;48.738;9.226;2022-11-20T08:53:03;5.70;99.90
1379;DHT22;683;48.738;9.226;2022-11-20T08:55:31;5.80;99.90
1379;DHT22;683;48.738;9.226;2022-11-20T08:58:03;5.80;99.90
1379;DHT22;683;48.738;9.226;2022-11-20T09:00:33;5.90;99.90
1379;DHT22;683;48.738;9.226;2022-11-20T09:03:01;6.00;99.90
1379;DHT22;683;48.738;9.226;2022-11-20T09:05:29;6.10;99.90
1379;DHT22;683;48.738;9.226;2022-11-20T09:07:57;6.20;99.90
1379;DHT22;683;48.738;9.226;2022-11-20T09:10:26;6.30;99.90
1379;DHT22;683;48.738;9.226;2022-11-20T09:12:55;6.40;99.90
1379;DHT22;683;48.738;9.226;2022-11-20T09:15:23;6.40;99.90
1379;DHT22;683;48.738;9.226;2022-11-20T09:17:52;6.40;99.90
1379;DHT22;683;48.738;9.226;2022-11-20T09:20:19;6.50;99.90
1379;DHT22;683;48.738;9.226;2022-11-20T09:22:47;6.40;99.90
1379;DHT22;683;48.738;9.226;2022-11-20T09:25:15;6.30;99.90
1379;DHT22;683;48.738;9.226;2022-11-20T09:27:45;6.40;99.90
1379;DHT22;683;48.738;9.226;2022-11-20T09:30:13;6.40;99.90
1379;DHT22;683;48.738;9.226;2022-11-20T09:32:42;6.40;99.90
1379;DHT22;683;48.738;9.226;2022-11-20T09:35:10;6.50;99.90
1379;DHT22;683;48.738;9.226;2022-11-20T09:37:38;6.50;99.90
1379;DHT22;683;48.738;9.226;2022-11-20T09:40:09;6.60;99.90
1379;DHT22;683;48.738;9.226;2022-11-20T09:42:49;6.60;99.90
1379;DHT22;683;48.738;9.226;2022-11-20T09:45:24;6.60;99.90
1379;DHT22;683;48.738;9.226;2022-11-20T09:48:18;6.60;99.90
1379;DHT22;683;48.738;9.226;2022-11-20T09:50:53;6.60;99.90
1379;DHT22;683;48.738;9.226;2022-11-20T09:53:32;6.60;99.90
1379;DHT22;683;48.738;9.226;2022-11-20T09:56:03;6.70;99.90
1379;DHT22;683;48.738;9.226;2022-11-20T09:58:38;6.70;99.90
1379;DHT22;683;48.738;9.226;2022-11-20T10:01:11;6.80;99.90
1379;DHT22;683;48.738;9.226;2022-11-20T10:03:46;6.70;99.90
1379;DHT22;683;48.738;9.226;2022-11-20T10:06:19;6.70;99.90
1379;DHT22;683;48.738;9.226;2022-11-20T10:08:55;6.80;99.90
1379;DHT22;683;48.738;9.226;2022-11-20T10:11:35;6.80;99.90
1379;DHT22;683;48.738;9.226;2022-11-20T10:14:16;6.80;99.90
1379;DHT22;683;48.738;9.226;2022-11-20T10:16:53;6.70;99.90
1379;DHT22;683;48.738;9.226;2022-11-20T10:19:34;6.70;99.90
1379;DHT22;683;48.738;9.226;2022-11-20T10:22:18;6.70;99.90
1379;DHT22;683;48.738;9.226;2022-11-20T10:24:55;6.60;99.90
1379;DHT22;683;48.738;9.226;2022-11-20T10:27:44;6.60;99.90
1379;DHT22;683;48.738;9.226;2022-11-20T10:30:19;6.60;99.90
1379;DHT22;683;48.738;9.226;2022-11-20T10:32:52;6.60;99.90
1379;DHT22;683;48.738;9.226;2022-11-20T10:35:23;6.50;99.90
1379;DHT22;683;48.738;9.226;2022-11-20T10:37:56;6.50;99.90
1379;DHT22;683;48.738;9.226;2022-11-20T10:40:31;6.40;99.90
1379;DHT22;683;48.738;9.226;2022-11-20T10:43:02;6.30;99.90
1379;DHT22;683;48.738;9.226;2022-11-20T10:45:47;6.30;99.90
1379;DHT22;683;48.738;9.226;2022-11-20T10:48:20;6.30;99.90
1379;DHT22;683;48.738;9.226;2022-11-20T10:51:10;6.20;99.90
1379;DHT22;683;48.738;9.226;2022-11-20T10:53:54;6.10;99.90
1379;DHT22;683;48.738;9.226;2022-11-20T10:56:28;6.10;99.90
1379;DHT22;683;48.738;9.226;2022-11-20T11:02:16;6.10;99.90
1379;DHT22;683;48.738;9.226;2022-11-20T11:04:47;6.00;99.90
1379;DHT22;683;48.738;9.226;2022-11-20T11:07:20;6.10;99.90
1379;DHT22;683;48.738;9.226;2022-11-20T11:09:52;6.10;99.90
1379;DHT22;683;48.738;9.226;2022-11-20T11:12:21;6.10;99.90
1379;DHT22;683;48.738;9.226;2022-11-20T11:14:51;6.10;99.90
1379;DHT22;683;48.738;9.226;2022-11-20T11:17:29;6.20;99.90
1379;DHT22;683;48.738;9.226;2022-11-20T11:20:02;6.20;99.90
1379;DHT22;683;48.738;9.226;2022-11-20T11:22:32;6.20;99.90
1379;DHT22;683;48.738;9.226;2022-11-20T11:25:00;6.20;99.90
1379;DHT22;683;48.738;9.226;2022-11-20T11:27:29;6.40;99.90
1379;DHT22;683;48.738;9.226;2022-11-20T11:30:12;6.50;99.90
1379;DHT22;683;48.738;9.226;2022-11-20T11:32:42;6.60;99.90
1379;DHT22;683;48.738;9.226;2022-11-20T11:35:23;6.70;99.90
1379;DHT22;683;48.738;9.226;2022-11-20T11:37:53;6.70;99.90
1379;DHT22;683;48.738;9.226;2022-11-20T11:40:22;6.70;99.90
1379;DHT22;683;48.738;9.226;2022-11-20T11:42:56;6.70;99.90
1379;DHT22;683;48.738;9.226;2022-11-20T11:45:24;6.70;99.90
1379;DHT22;683;48.738;9.226;2022-11-20T11:47:55;6.70;99.90
1379;DHT22;683;48.738;9.226;2022-11-20T11:50:26;6.70;99.90
1379;DHT22;683;48.738;9.226;2022-11-20T11:53:00;6.80;99.90
1379;DHT22;683;48.738;9.226;2022-11-20T11:55:33;6.80;99.90
1379;DHT22;683;48.738;9.226;2022-11-20T12:00:56;7.00;99.90
1379;DHT22;683;48.738;9.226;2022-11-20T12:03:32;7.00;99.90
1379;DHT22;683;48.738;9.226;2022-11-20T12:06:07;7.10;99.90
1379;DHT22;683;48.738;9.226;2022-11-20T12:08:44;7.20;99.90
1379;DHT22;683;48.738;9.226;2022-11-20T12:11:18;7.30;99.90
1379;DHT22;683;48.738;9.226;2022-11-20T12:13:52;7.40;99.90
1379;DHT22;683;48.738;9.226;2022-11-20T12:16:21;7.50;99.90
1379;DHT22;683;48.738;9.226;2022-11-20T12:18:52;7.60;99.90
1379;DHT22;683;48.738;9.226;2022-11-20T12:21:25;7.60;99.90
1379;DHT22;683;48.738;9.226;2022-11-20T12:24:09;7.60;99.90
1379;DHT22;683;48.738;9.226;2022-11-20T12:26:47;7.70;99.90
1379;DHT22;683;48.738;9.226;2022-11-20T12:29:25;7.80;99.90
1379;DHT22;683;48.738;9.226;2022-11-20T12:32:16;7.70;99.90
1379;DHT22;683;48.738;9.226;2022-11-20T12:34:55;7.60;99.90
1379;DHT22;683;48.738;9.226;2022-11-20T12:37:34;7.50;99.90
1379;DHT22;683;48.738;9.226;2022-11-20T12:40:14;7.40;99.90
1379;DHT22;683;48.738;9.226;2022-11-20T12:42:50;7.40;99.90
1379;DHT22;683;48.738;9.226;2022-11-20T12:46:16;7.30;99.90
1379;DHT22;683;48.738;9.226;2022-11-20T12:48:59;7.40;99.90
1379;DHT22;683;48.738;9.226;2022-11-20T12:51:51;7.50;99.90
1379;DHT22;683;48.738;9.226;2022-11-20T12:54:51;7.60;99.90
1379;DHT22;683;48.738;9.226;2022-11-20T12:57:27;7.60;99.90
1379;DHT22;683;48.738;9.226;2022-11-20T13:00:10;7.60;99.90
1379;DHT22;683;48.738;9.226;2022-11-20T13:03:06;7.60;99.90
1379;DHT22;683;48.738;9.226;2022-11-20T13:05:43;7.80;99.90
1379;DHT22;683;48.738;9.226;2022-11-20T13:08:18;8.00;99.90
1379;DHT22;683;48.738;9.226;2022-11-20T13:10:55;8.20;99.90
1379;DHT22;683;48.738;9.226;2022-11-20T13:13:32;8.40;99.90
1379;DHT22;683;48.738;9.226;2022-11-20T13:16:07;8.40;99.90
1379;DHT22;683;48.738;9.226;2022-11-20T13:18:38;8.20;99.70
1379;DHT22;683;48.738;9.226;2022-11-20T13:21:17;8.10;99.90
1379;DHT22;683;48.738;9.226;2022-11-20T13:23:46;8.00;99.90
1379;DHT22;683;48.738;9.226;2022-11-20T13:26:17;8.00;99.90
1379;DHT22;683;48.738;9.226;2022-11-20T13:28:47;8.00;99.90
1379;DHT22;683;48.738;9.226;2022-11-20T13:31:30;8.10;99.90
1379;DHT22;683;48.738;9.226;2022-11-20T13:34:00;8.10;99.90
1379;DHT22;683;48.738;9.226;2022-11-20T13:36:30;8.00;99.90
1379;DHT22;683;48.738;9.226;2022-11-20T13:39:00;8.00;99.60
1379;DHT22;683;48.738;9.226;2022-11-20T13:41:30;7.90;99.70
1379;DHT22;683;48.738;9.226;2022-11-20T13:44:09;8.00;99.60
1379;DHT22;683;48.738;9.226;2022-11-20T13:46:40;8.00;99.00
1379;DHT22;683;48.738;9.226;2022-11-20T13:49:18;8.00;99.20
1379;DHT22;683;48.738;9.226;2022-11-20T13:51:51;8.00;99.40
1379;DHT22;683;48.738;9.226;2022-11-20T13:57:56;8.50;99.00
1379;DHT22;683;48.738;9.226;2022-11-20T14:00:26;9.10;98.60
1379;DHT22;683;48.738;9.226;2022-11-20T14:03:08;9.50;96.50
1379;DHT22;683;48.738;9.226;2022-11-20T14:05:40;9.50;95.80
1379;DHT22;683;48.738;9.226;2022-11-20T14:08:26;9.20;96.20
1379;DHT22;683;48.738;9.226;2022-11-20T14:11:05;8.90;96.40
1379;DHT22;683;48.738;9.226;2022-11-20T14:13:36;8.80;97.20
1379;DHT22;683;48.738;9.226;2022-11-20T14:16:04;8.50;97.80
1379;DHT22;683;48.738;9.226;2022-11-20T14:18:31;8.40;98.10
1379;DHT22;683;48.738;9.226;2022-11-20T14:21:00;8.30;98.90
1379;DHT22;683;48.738;9.226;2022-11-20T14:23:30;8.10;98.30
1379;DHT22;683;48.738;9.226;2022-11-20T14:25:57;7.90;98.60
1379;DHT22;683;48.738;9.226;2022-11-20T14:28:27;7.70;98.80
1379;DHT22;683;48.738;9.226;2022-11-20T14:30:57;7.50;99.30
1379;DHT22;683;48.738;9.226;2022-11-20T14:33:26;7.40;99.40
1379;DHT22;683;48.738;9.226;2022-11-20T14:35:56;7.30;99.50
1379;DHT22;683;48.738;9.226;2022-11-20T14:38:26;7.20;99.90
1379;DHT22;683;48.738;9.226;2022-11-20T14:41:05;7.10;99.90
1379;DHT22;683;48.738;9.226;2022-11-20T14:43:33;7.20;99.90
1379;DHT22;683;48.738;9.226;2022-11-20T14:46:07;7.10;99.90
1379;DHT22;683;48.738;9.226;2022-11-20T14:48:39;7.10;99.90
1379;DHT22;683;48.738;9.226;2022-11-20T14:51:09;7.10;99.90
1379;DHT22;683;48.738;9.226;2022-11-20T14:53:37;7.00;99.90
1379;DHT22;683;48.738;9.226;2022-11-20T14:56:05;6.90;99.90
1379;DHT22;683;48.738;9.226;2022-11-20T14:58:33;6.90;99.90
1379;DHT22;683;48.738;9.226;2022-11-20T15:01:05;6.90;99.90
1379;DHT22;683;48.738;9.226;2022-11-20T15:03:34;6.70;99.90
1379;DHT22;683;48.738;9.226;2022-11-20T15:06:03;6.70;99.90
1379;DHT22;683;48.738;9.226;2022-11-20T15:08:31;6.70;99.90
1379;DHT22;683;48.738;9.226;2022-11-20T15:10:59;6.70;99.90
1379;DHT22;683;48.738;9.226;2022-11-20T15:13:31;6.70;99.90
1379;DHT22;683;48.738;9.226;2022-11-20T15:16:00;6.60;99.90
1379;DHT22;683;48.738;9.226;2022-11-20T15:18:32;6.60;99.90
1379;DHT22;683;48.738;9.226;2022-11-20T15:21:02;6.50;99.90
1379;DHT22;683;48.738;9.226;2022-11-20T15:23:30;6.50;99.90
1379;DHT22;683;48.738;9.226;2022-11-20T15:25:58;6.40;99.90
1379;DHT22;683;48.738;9.226;2022-11-20T15:28:29;6.30;99.90
1379;DHT22;683;48.738;9.226;2022-11-20T15:30:58;6.20;99.90
1379;DHT22;683;48.738;9.226;2022-11-20T15:33:26;6.20;99.90
1379;DHT22;683;48.738;9.226;2022-11-20T15:35:55;6.10;99.90
1379;DHT22;683;48.738;9.226;2022-11-20T15:38:23;6.00;99.90
1379;DHT22;683;48.738;9.226;2022-11-20T15:40:51;6.00;99.90
1379;DHT22;683;48.738;9.226;2022-11-20T15:43:19;5.90;99.90
1379;DHT22;683;48.738;9.226;2022-11-20T15:45:48;5.90;99.90
1379;DHT22;683;48.738;9.226;2022-11-20T15:48:19;5.90;99.90
1379;DHT22;683;48.738;9.226;2022-11-20T15:50:52;5.80;99.90
1379;DHT22;683;48.738;9.226;2022-11-20T15:53:22;5.80;99.90
1379;DHT22;683;48.738;9.226;2022-11-20T15:55:50;5.70;99.90
1379;DHT22;683;48.738;9.226;2022-11-20T15:58:18;5.70;99.90
1379;DHT22;683;48.738;9.226;2022-11-20T16:00:46;5.60;99.90
1379;DHT22;683;48.738;9.226;2022-11-20T16:03:14;5.60;99.90
1379;DHT22;683;48.738;9.226;2022-11-20T16:05:43;5.60;99.90
1379;DHT22;683;48.738;9.226;2022-11-20T16:08:11;5.50;99.90
1379;DHT22;683;48.738;9.226;2022-11-20T16:10:40;5.50;99.90
1379;DHT22;683;48.738;9.226;2022-11-20T16:13:12;5.50;99.90
1379;DHT22;683;48.738;9.226;2022-11-20T16:15:59;5.50;99.90
1379;DHT22;683;48.738;9.226;2022-11-20T16:18:27;5.50;99.90
1379;DHT22;683;48.738;9.226;2022-11-20T16:20:55;5.50;99.90
1379;DHT22;683;48.738;9.226;2022-11-20T16:23:23;5.50;99.90
1379;DHT22;683;48.738;9.226;2022-11-20T16:25:52;5.40;99.90
1379;DHT22;683;48.738;9.226;2022-11-20T16:28:20;5.50;99.90
1379;DHT22;683;48.738;9.226;2022-11-20T16:30:48;5.50;99.90
1379;DHT22;683;48.738;9.226;2022-11-20T16:33:16;5.50;99.90
1379;DHT22;683;48.738;9.226;2022-11-20T16:35:44;5.60;99.90
1379;DHT22;683;48.738;9.226;2022-11-20T16:38:12;5.70;99.90
1379;DHT22;683;48.738;9.226;2022-11-20T16:40:40;5.70;99.90
1379;DHT22;683;48.738;9.226;2022-11-20T16:43:10;5.70;99.90
1379;DHT22;683;48.738;9.226;2022-11-20T16:45:41;5.70;99.90
1379;DHT22;683;48.738;9.226;2022-11-20T16:48:13;5.70;99.90
1379;DHT22;683;48.738;9.226;2022-11-20T16:50:49;5.80;99.90
1379;DHT22;683;48.738;9.226;2022-11-20T16:53:18;5.80;99.90
1379;DHT22;683;48.738;9.226;2022-11-20T16:55:46;5.80;99.90
1379;DHT22;683;48.738;9.226;2022-11-20T16:58:15;5.80;99.90
1379;DHT22;683;48.738;9.226;2022-11-20T17:00:43;5.80;99.90
1379;DHT22;683;48.738;9.226;2022-11-20T17:03:11;5.80;99.90
1379;DHT22;683;48.738;9.226;2022-11-20T17:05:40;5.80;99.90
1379;DHT22;683;48.738;9.226;2022-11-20T17:08:08;5.80;99.90